createdAt,value
2022-09-11T00:01:54.029Z,100.00
2022-09-11T00:04:23.354Z,99.12
2022-09-11T00:06:52.609Z,99.70
2022-09-11T00:09:22.590Z,99.94
2022-09-11T00:11:51.625Z,100.00
2022-09-11T00:14:21.925Z,99.37
2022-09-11T00:16:51.224Z,100.00
2022-09-11T00:19:23.362Z,99.37
2022-09-11T00:21:52.775Z,100.00
2022-09-11T00:24:21.812Z,100.00
2022-09-11T00:26:51.824Z,100.00
2022-09-11T00:29:21.235Z,100.00
2022-09-11T00:31:50.627Z,100.00
2022-09-11T00:34:20.494Z,100.00
2022-09-11T00:36:49.754Z,100.00
2022-09-11T00:39:19.225Z,100.00
2022-09-11T00:41:48.570Z,100.00
2022-09-11T00:44:20.853Z,100.00
2022-09-11T00:46:54.464Z,100.00
2022-09-11T00:49:33.660Z,100.00
2022-09-11T00:52:31.564Z,100.00
2022-09-11T00:55:10.300Z,100.00
2022-09-11T00:57:50.768Z,100.00
2022-09-11T01:00:21.079Z,100.00
2022-09-11T01:02:53.293Z,100.00
2022-09-11T01:05:25.033Z,100.00
2022-09-11T01:07:57.449Z,100.00
2022-09-11T01:10:57.349Z,100.00
2022-09-11T01:13:39.797Z,100.00
2022-09-11T01:16:21.088Z,100.00
2022-09-11T01:19:38.799Z,100.00
2022-09-11T01:22:46.496Z,100.00
2022-09-11T01:25:33.057Z,100.00
2022-09-11T01:28:10.812Z,100.00
2022-09-11T01:30:48.634Z,100.00
2022-09-11T01:33:41.900Z,100.00
2022-09-11T01:36:42.066Z,100.00
2022-09-11T01:39:12.908Z,100.00
2022-09-11T01:41:54.257Z,100.00
2022-09-11T01:44:45.708Z,99.52
2022-09-11T01:47:17.620Z,99.05
2022-09-11T01:50:22.912Z,99.87
2022-09-11T01:53:01.734Z,99.41
2022-09-11T01:55:56.796Z,98.19
2022-09-11T01:58:31.913Z,98.04
2022-09-11T02:01:08.557Z,99.74
2022-09-11T02:04:09.036Z,98.92
2022-09-11T02:06:47.516Z,98.45
2022-09-11T02:09:23.296Z,99.29
2022-09-11T02:11:57.374Z,99.69
2022-09-11T02:14:26.186Z,98.88
2022-09-11T02:17:17.385Z,99.07
2022-09-11T02:19:46.825Z,98.55
2022-09-11T02:22:15.885Z,98.26
2022-09-11T02:24:45.846Z,97.11
2022-09-11T02:27:23.803Z,97.82
2022-09-11T02:29:55.466Z,97.38
2022-09-11T02:32:26.839Z,97.08
2022-09-11T02:34:58.170Z,96.57
2022-09-11T02:37:40.656Z,96.42
2022-09-11T02:40:42.669Z,95.38
2022-09-11T02:43:28.623Z,94.37
2022-09-11T02:46:28.450Z,93.62
2022-09-11T02:49:16.035Z,93.93
2022-09-11T02:51:57.266Z,91.57
2022-09-11T02:55:03.217Z,90.24
2022-09-11T02:58:09.530Z,89.66
2022-09-11T03:00:41.780Z,89.90
2022-09-11T03:03:11.229Z,89.47
2022-09-11T03:05:41.428Z,89.70
2022-09-11T03:08:11.688Z,90.10
2022-09-11T03:10:41.464Z,90.15
2022-09-11T03:13:15.135Z,89.86
2022-09-11T03:15:46.790Z,88.87
2022-09-11T03:18:17.008Z,87.23
2022-09-11T03:20:48.523Z,86.81
2022-09-11T03:23:19.256Z,86.93
2022-09-11T03:25:48.739Z,86.80
2022-09-11T03:28:18.410Z,86.62
2022-09-11T03:30:48.354Z,86.99
2022-09-11T03:33:21.098Z,85.92
2022-09-11T03:35:50.761Z,85.45
2022-09-11T03:38:21.819Z,84.18
2022-09-11T03:40:51.830Z,83.63
2022-09-11T03:43:20.631Z,85.50
2022-09-11T03:45:53.916Z,84.85
2022-09-11T03:48:23.310Z,84.71
2022-09-11T03:50:52.831Z,83.57
2022-09-11T03:53:22.938Z,82.88
2022-09-11T03:55:52.023Z,82.97
2022-09-11T03:58:21.502Z,83.43
2022-09-11T04:00:50.791Z,83.54
2022-09-11T04:03:20.308Z,82.43
2022-09-11T04:06:10.162Z,81.78
2022-09-11T04:08:42.209Z,81.34
2022-09-11T04:11:13.686Z,81.73
2022-09-11T04:13:44.629Z,82.14
2022-09-11T04:16:18.965Z,82.62
2022-09-11T04:18:54.619Z,81.94
2022-09-11T04:21:25.667Z,82.10
2022-09-11T04:23:58.828Z,81.22
2022-09-11T04:26:32.179Z,81.85
2022-09-11T04:29:11.381Z,82.55
2022-09-11T04:31:42.429Z,82.37
2022-09-11T04:34:14.715Z,82.06
2022-09-11T04:36:44.825Z,82.09
2022-09-11T04:39:19.704Z,81.84
2022-09-11T04:41:50.682Z,81.85
2022-09-11T04:44:21.881Z,83.06
2022-09-11T04:46:51.621Z,82.94
2022-09-11T04:49:21.960Z,82.60
2022-09-11T04:51:51.561Z,82.22
2022-09-11T04:54:25.342Z,79.94
2022-09-11T04:56:55.931Z,80.85
2022-09-11T04:59:25.820Z,80.48
2022-09-11T05:02:04.643Z,79.82
2022-09-11T05:04:37.515Z,78.50
2022-09-11T05:07:07.384Z,79.08
2022-09-11T05:09:37.095Z,80.09
2022-09-11T05:12:07.364Z,79.53
2022-09-11T05:14:39.149Z,78.05
2022-09-11T05:17:08.923Z,77.45
2022-09-11T05:19:42.519Z,77.37
2022-09-11T05:22:11.974Z,76.57
2022-09-11T05:24:46.456Z,77.57
2022-09-11T05:27:16.346Z,77.65
2022-09-11T05:29:46.892Z,78.97
2022-09-11T05:32:17.485Z,79.34
2022-09-11T05:34:47.253Z,80.91
2022-09-11T05:37:18.759Z,77.90
2022-09-11T05:39:49.877Z,77.03
2022-09-11T05:42:23.191Z,78.46
2022-09-11T05:44:56.279Z,77.33
2022-09-11T05:47:27.746Z,74.68
2022-09-11T05:49:58.017Z,77.17
2022-09-11T05:52:31.762Z,76.74
2022-09-11T05:55:01.167Z,76.70
2022-09-11T05:57:32.307Z,77.36
2022-09-11T06:00:02.155Z,75.56
2022-09-11T06:02:34.588Z,76.90
2022-09-11T06:05:04.309Z,75.39
2022-09-11T06:07:36.685Z,73.21
2022-09-11T06:10:06.036Z,73.27
2022-09-11T06:12:35.541Z,73.19
2022-09-11T06:15:05.275Z,74.33
2022-09-11T06:17:34.436Z,72.51
2022-09-11T06:20:03.464Z,71.89
2022-09-11T06:22:34.769Z,71.63
2022-09-11T06:25:04.344Z,71.83
2022-09-11T06:27:33.785Z,71.54
2022-09-11T06:30:03.278Z,70.78
2022-09-11T06:32:37.847Z,69.40
2022-09-11T06:35:08.607Z,71.45
2022-09-11T06:37:38.248Z,72.10
2022-09-11T06:40:09.767Z,71.67
2022-09-11T06:42:39.474Z,71.84
2022-09-11T06:45:10.089Z,71.65
2022-09-11T06:47:40.075Z,69.86
2022-09-11T06:50:09.909Z,68.21
2022-09-11T06:53:00.018Z,66.98
2022-09-11T06:55:32.837Z,65.83
2022-09-11T06:58:10.070Z,66.14
2022-09-11T07:00:39.901Z,65.71
2022-09-11T07:03:11.195Z,66.75
2022-09-11T07:05:47.200Z,66.74
2022-09-11T07:08:19.805Z,67.33
2022-09-11T07:10:53.047Z,66.38
2022-09-11T07:13:25.525Z,65.95
2022-09-11T07:16:06.260Z,66.26
2022-09-11T07:18:40.886Z,65.77
2022-09-11T07:21:17.696Z,66.12
2022-09-11T07:23:50.796Z,64.16
2022-09-11T07:26:20.703Z,63.88
2022-09-11T07:28:52.696Z,63.33
2022-09-11T07:31:24.718Z,63.68
2022-09-11T07:33:55.014Z,63.65
2022-09-11T07:36:28.143Z,64.38
2022-09-11T07:38:57.621Z,64.33
2022-09-11T07:41:34.759Z,64.27
2022-09-11T07:44:11.605Z,64.50
2022-09-11T07:46:42.450Z,62.69
2022-09-11T07:49:14.423Z,63.11
2022-09-11T07:51:45.414Z,62.93
2022-09-11T07:54:18.147Z,61.58
2022-09-11T07:56:47.587Z,60.75
2022-09-11T07:59:19.465Z,60.11
2022-09-11T08:01:54.650Z,60.37
2022-09-11T08:04:24.500Z,64.43
2022-09-11T08:06:54.344Z,64.67
2022-09-11T08:09:29.706Z,67.48
2022-09-11T08:12:02.282Z,69.71
2022-09-11T08:14:33.366Z,70.45
2022-09-11T08:17:10.549Z,72.90
2022-09-11T08:19:41.948Z,77.45
2022-09-11T08:22:12.929Z,85.46
2022-09-11T08:24:46.159Z,90.38
2022-09-11T08:27:18.837Z,94.08
2022-09-11T08:29:49.088Z,100.00
2022-09-11T08:32:19.523Z,100.00
2022-09-11T08:34:49.817Z,100.00
2022-09-11T08:37:19.246Z,100.00
2022-09-11T08:39:50.184Z,100.00
2022-09-11T08:42:19.584Z,100.00
2022-09-11T08:45:00.233Z,100.00
2022-09-11T08:47:50.807Z,100.00
2022-09-11T08:50:28.821Z,100.00
2022-09-11T08:53:02.634Z,100.00
2022-09-11T08:55:42.956Z,100.00
2022-09-11T08:58:19.317Z,100.00
2022-09-11T09:01:15.722Z,100.00
2022-09-11T09:04:42.723Z,100.00
2022-09-11T09:07:34.803Z,100.00
2022-09-11T09:10:33.967Z,100.00
2022-09-11T09:13:16.597Z,100.00
2022-09-11T09:16:10.930Z,100.00
2022-09-11T09:18:52.350Z,99.09
2022-09-11T09:21:39.724Z,100.00
2022-09-11T09:24:23.046Z,99.34
2022-09-11T09:26:57.553Z,99.38
2022-09-11T09:29:29.766Z,96.55
2022-09-11T09:32:05.706Z,95.55
2022-09-11T09:34:39.962Z,98.13
2022-09-11T09:37:21.646Z,98.43
2022-09-11T09:39:52.505Z,100.00
2022-09-11T09:42:52.855Z,100.00
2022-09-11T09:45:44.365Z,96.26
2022-09-11T09:48:14.151Z,96.24
2022-09-11T09:50:48.021Z,100.00
2022-09-11T09:53:45.082Z,100.00
2022-09-11T09:56:19.107Z,100.00
2022-09-11T09:59:03.668Z,98.02
2022-09-11T10:01:52.658Z,95.89
2022-09-11T10:04:31.506Z,95.74
2022-09-11T10:07:12.814Z,95.37
2022-09-11T10:09:47.897Z,96.90
2022-09-11T10:12:29.256Z,93.34
2022-09-11T10:15:01.549Z,96.23
2022-09-11T10:17:30.887Z,94.38
2022-09-11T10:20:20.749Z,93.69
2022-09-11T10:22:54.243Z,89.60
2022-09-11T10:25:31.321Z,92.26
2022-09-11T10:28:10.409Z,93.22
2022-09-11T10:30:42.734Z,93.43
2022-09-11T10:33:33.035Z,92.67
2022-09-11T10:36:05.799Z,90.71
2022-09-11T10:38:41.449Z,90.08
2022-09-11T10:41:24.159Z,90.11
2022-09-11T10:44:05.694Z,88.92
2022-09-11T10:46:41.427Z,88.31
2022-09-11T10:49:23.344Z,88.94
2022-09-11T10:52:11.417Z,89.40
2022-09-11T10:54:45.937Z,88.12
2022-09-11T10:57:44.805Z,87.37
2022-09-11T11:00:24.059Z,85.50
2022-09-11T11:02:57.675Z,87.96
2022-09-11T11:05:50.692Z,86.13
2022-09-11T11:08:51.893Z,85.70
2022-09-11T11:11:42.396Z,83.99
2022-09-11T11:14:33.190Z,84.72
2022-09-11T11:17:24.164Z,84.45
2022-09-11T11:20:08.903Z,83.55
2022-09-11T11:22:59.989Z,85.48
2022-09-11T11:25:49.767Z,84.69
2022-09-11T11:28:26.128Z,84.95
2022-09-11T11:31:13.179Z,83.75
2022-09-11T11:33:52.755Z,82.82
2022-09-11T11:36:34.174Z,81.22
2022-09-11T11:39:21.963Z,82.05
2022-09-11T11:42:16.860Z,82.98
2022-09-11T11:44:55.830Z,83.75
2022-09-11T11:47:31.177Z,83.29
2022-09-11T11:50:09.864Z,80.39
2022-09-11T11:53:11.071Z,81.40
2022-09-11T11:56:13.470Z,83.60
2022-09-11T11:58:56.864Z,85.73
2022-09-11T12:01:40.238Z,81.96
2022-09-11T12:04:39.729Z,81.99
2022-09-11T12:07:20.753Z,81.63
2022-09-11T12:09:52.414Z,82.08
2022-09-11T12:12:25.102Z,83.25
2022-09-11T12:15:04.339Z,83.17
2022-09-11T12:17:37.962Z,82.67
2022-09-11T12:20:13.496Z,83.72
2022-09-11T12:22:51.379Z,85.14
2022-09-11T12:25:20.614Z,84.61
2022-09-11T12:27:57.241Z,85.96
2022-09-11T12:30:29.725Z,85.68
2022-09-11T12:33:02.535Z,82.55
2022-09-11T12:35:31.246Z,83.43
2022-09-11T12:38:15.659Z,84.77
2022-09-11T12:40:57.380Z,84.15
2022-09-11T12:43:39.345Z,84.13
2022-09-11T12:46:15.063Z,86.10
2022-09-11T12:49:00.289Z,87.60
2022-09-11T12:51:44.177Z,86.45
2022-09-11T12:54:28.809Z,87.45
2022-09-11T12:57:06.922Z,87.32
2022-09-11T12:59:42.992Z,87.92
2022-09-11T14:50:21.158Z,100.00
2022-09-11T14:52:51.040Z,100.00
2022-09-11T14:55:21.836Z,100.00
2022-09-11T14:57:51.446Z,100.00
2022-09-11T15:00:21.693Z,100.00
2022-09-11T15:02:51.517Z,100.00
2022-09-11T15:05:24.143Z,100.00
2022-09-11T15:07:54.288Z,100.00
2022-09-11T15:10:24.211Z,100.00
2022-09-11T15:12:53.560Z,100.00
2022-09-11T15:15:28.894Z,100.00
2022-09-11T15:17:59.040Z,100.00
2022-09-11T15:20:28.863Z,100.00
2022-09-11T15:22:58.596Z,100.00
2022-09-11T15:25:28.011Z,100.00
2022-09-11T15:27:58.074Z,100.00
2022-09-11T15:30:28.825Z,100.00
2022-09-11T15:32:58.566Z,100.00
2022-09-11T15:35:32.711Z,100.00
2022-09-11T15:38:02.728Z,100.00
2022-09-11T15:40:31.822Z,100.00
2022-09-11T15:43:01.428Z,100.00
2022-09-11T15:45:31.365Z,100.00
2022-09-11T15:48:01.270Z,100.00
2022-09-11T15:50:31.413Z,100.00
2022-09-11T15:53:00.973Z,100.00
2022-09-11T15:55:31.517Z,100.00
2022-09-11T15:58:02.104Z,100.00
2022-09-11T16:00:31.585Z,100.00
2022-09-11T16:03:00.766Z,100.00
2022-09-11T16:05:32.369Z,100.00
2022-09-11T16:08:02.571Z,100.00
2022-09-11T16:10:32.422Z,100.00
2022-09-11T16:13:03.092Z,100.00
2022-09-11T16:15:35.084Z,100.00
2022-09-11T16:18:09.530Z,100.00
2022-09-11T16:20:42.755Z,100.00
2022-09-11T16:23:13.712Z,100.00
2022-09-11T16:25:44.229Z,100.00
2022-09-11T16:28:15.562Z,100.00
2022-09-11T16:30:49.483Z,100.00
2022-09-11T16:33:21.376Z,100.00
2022-09-11T16:36:07.994Z,100.00
2022-09-11T16:38:44.787Z,100.00
2022-09-11T16:41:31.027Z,100.00
2022-09-11T16:44:02.241Z,100.00
2022-09-11T16:46:35.565Z,100.00
2022-09-11T16:49:07.247Z,100.00
2022-09-11T16:51:37.102Z,100.00
2022-09-11T16:54:07.296Z,100.00
2022-09-11T16:56:36.992Z,100.00
2022-09-11T16:59:09.286Z,100.00
2022-09-11T17:01:41.931Z,100.00
2022-09-11T17:04:13.056Z,100.00
2022-09-11T17:06:42.682Z,100.00
2022-09-11T17:09:12.706Z,100.00
2022-09-11T17:11:43.047Z,100.00
2022-09-11T17:14:13.699Z,100.00
2022-09-11T17:16:43.114Z,100.00
2022-09-11T17:19:15.261Z,100.00
2022-09-11T17:21:49.247Z,100.00
2022-09-11T17:24:23.485Z,100.00
2022-09-11T17:26:55.166Z,100.00
2022-09-11T17:29:25.127Z,100.00
2022-09-11T17:32:23.702Z,100.00
2022-09-11T17:34:49.062Z,100.00
2022-09-11T17:37:19.156Z,100.00
2022-09-11T17:39:48.612Z,100.00
2022-09-11T17:42:19.060Z,100.00
2022-09-11T17:44:49.178Z,100.00
2022-09-11T17:47:19.193Z,100.00
2022-09-11T17:49:48.311Z,100.00
2022-09-11T17:52:20.458Z,100.00
2022-09-11T17:54:50.267Z,100.00
2022-09-11T17:57:19.950Z,100.00
2022-09-11T17:59:52.569Z,100.00
2022-09-11T18:02:22.673Z,100.00
2022-09-11T18:04:52.138Z,100.00
2022-09-11T18:07:21.997Z,100.00
2022-09-11T18:09:56.556Z,100.00
2022-09-11T18:12:28.118Z,100.00
2022-09-11T18:15:00.388Z,100.00
2022-09-11T18:17:31.550Z,100.00
2022-09-11T18:20:01.547Z,100.00
2022-09-11T18:22:31.329Z,100.00
2022-09-11T18:25:00.880Z,100.00
2022-09-11T18:27:29.904Z,100.00
2022-09-11T18:29:59.904Z,100.00
2022-09-11T18:32:29.999Z,100.00
2022-09-11T18:35:00.324Z,100.00
2022-09-11T18:37:29.411Z,100.00
2022-09-11T18:40:00.000Z,100.00
2022-09-11T18:42:30.041Z,100.00
2022-09-11T18:45:00.072Z,100.00
2022-09-11T18:47:31.980Z,100.00
2022-09-11T18:50:01.951Z,100.00
2022-09-11T18:52:32.625Z,100.00
2022-09-11T18:55:02.301Z,100.00
2022-09-11T18:57:31.578Z,100.00
2022-09-11T19:00:01.384Z,100.00
2022-09-11T19:02:32.403Z,100.00
2022-09-11T19:05:02.632Z,100.00
2022-09-11T19:07:33.328Z,100.00
2022-09-11T19:10:02.617Z,100.00
2022-09-11T19:12:31.845Z,100.00
2022-09-11T19:15:02.024Z,100.00
2022-09-11T19:17:31.127Z,100.00
2022-09-11T19:20:00.646Z,100.00
2022-09-11T19:22:31.484Z,100.00
2022-09-11T19:25:00.821Z,100.00
2022-09-11T19:27:32.793Z,100.00
2022-09-11T19:30:01.905Z,100.00
2022-09-11T19:32:32.538Z,100.00
2022-09-11T19:35:01.977Z,100.00
2022-09-11T19:37:30.931Z,100.00
2022-09-11T19:40:01.928Z,100.00
2022-09-11T19:42:32.335Z,100.00
2022-09-11T19:45:02.340Z,100.00
2022-09-11T19:47:31.329Z,100.00
2022-09-11T19:50:00.750Z,100.00
2022-09-11T19:52:33.037Z,100.00
2022-09-11T19:55:02.864Z,100.00
2022-09-11T19:57:32.819Z,100.00
2022-09-11T20:00:01.747Z,100.00
2022-09-11T20:02:33.984Z,100.00
2022-09-11T20:05:03.360Z,100.00
2022-09-11T20:07:32.963Z,100.00
2022-09-11T20:10:01.980Z,100.00
2022-09-11T20:12:38.089Z,100.00
2022-09-11T20:15:08.817Z,100.00
2022-09-11T20:17:38.219Z,100.00
2022-09-11T20:20:08.630Z,100.00
2022-09-11T20:22:38.193Z,100.00
2022-09-11T20:25:07.553Z,100.00
2022-09-11T20:27:37.532Z,100.00
2022-09-11T20:30:07.239Z,100.00
2022-09-11T20:32:40.328Z,100.00
2022-09-11T20:35:10.825Z,100.00
2022-09-11T20:37:40.348Z,100.00
2022-09-11T20:40:10.475Z,100.00
2022-09-11T20:42:41.146Z,100.00
2022-09-11T20:45:10.697Z,100.00
2022-09-11T20:47:40.792Z,100.00
2022-09-11T20:50:11.191Z,100.00
2022-09-11T20:52:40.293Z,100.00
2022-09-11T20:55:10.108Z,100.00
2022-09-11T20:57:39.588Z,100.00
2022-09-11T21:00:10.176Z,100.00
2022-09-11T21:02:39.258Z,100.00
2022-09-11T21:05:08.427Z,100.00
2022-09-11T21:07:37.744Z,100.00
2022-09-11T21:10:07.354Z,100.00
2022-09-11T21:12:37.214Z,100.00
2022-09-11T21:15:08.809Z,100.00
2022-09-11T21:17:38.793Z,100.00
2022-09-11T21:20:08.909Z,100.00
2022-09-11T21:22:38.513Z,100.00
2022-09-11T21:25:08.397Z,100.00
2022-09-11T21:27:37.721Z,100.00
2022-09-11T21:30:08.290Z,100.00
2022-09-11T21:32:37.781Z,100.00
2022-09-11T21:35:07.558Z,100.00
2022-09-11T21:37:36.869Z,100.00
2022-09-11T21:40:07.668Z,100.00
2022-09-11T21:42:37.121Z,100.00
2022-09-11T21:45:06.695Z,100.00
2022-09-11T21:47:36.035Z,100.00
2022-09-11T21:50:07.913Z,100.00
2022-09-11T21:52:37.533Z,100.00
2022-09-11T21:55:07.105Z,100.00
2022-09-11T21:57:36.379Z,100.00
2022-09-11T22:00:09.976Z,100.00
2022-09-11T22:02:39.031Z,100.00
2022-09-11T22:05:08.631Z,100.00
2022-09-11T22:07:38.399Z,100.00
2022-09-11T22:10:09.222Z,100.00
2022-09-11T22:12:38.555Z,100.00
2022-09-11T22:15:08.149Z,100.00
2022-09-11T22:17:37.563Z,100.00
2022-09-11T22:20:08.735Z,100.00
2022-09-11T22:22:39.970Z,100.00
2022-09-11T22:25:09.729Z,100.00
2022-09-11T22:27:41.080Z,100.00
2022-09-11T22:30:11.142Z,100.00
2022-09-11T22:32:40.958Z,100.00
2022-09-11T22:35:10.353Z,100.00
2022-09-11T22:37:39.811Z,100.00
2022-09-11T22:40:10.049Z,100.00
2022-09-11T22:42:39.472Z,100.00
2022-09-11T22:45:09.484Z,100.00
2022-09-11T22:47:38.695Z,100.00
2022-09-11T22:53:34.003Z,100.00
2022-09-11T22:56:07.351Z,100.00
2022-09-11T22:58:39.788Z,100.00
2022-09-11T23:01:16.769Z,100.00
2022-09-11T23:03:50.427Z,100.00
2022-09-11T23:06:38.999Z,100.00
2022-09-11T23:09:11.686Z,100.00
2022-09-11T23:11:42.345Z,100.00
2022-09-11T23:14:14.341Z,100.00
2022-09-11T23:16:44.140Z,100.00
2022-09-11T23:19:16.129Z,100.00
2022-09-11T23:21:45.816Z,100.00
2022-09-11T23:24:15.652Z,100.00
2022-09-11T23:26:46.698Z,100.00
2022-09-11T23:29:16.396Z,100.00
2022-09-11T23:31:46.315Z,100.00
2022-09-11T23:34:17.800Z,100.00
2022-09-11T23:36:47.191Z,100.00
2022-09-11T23:39:16.756Z,100.00
2022-09-11T23:41:45.751Z,100.00
2022-09-11T23:44:16.128Z,100.00
2022-09-11T23:46:45.743Z,100.00
2022-09-11T23:49:16.636Z,100.00
2022-09-11T23:51:46.161Z,100.00
2022-09-11T23:54:15.336Z,100.00
2022-09-11T23:56:45.126Z,100.00
